Terminal Aerodrome Forecast
Issued by NWS

Home | Current Version | Previous Version | Text Only | Print | Product List | Glossary On
Versions: 1 2 3 4 5 6 7 8 9 10 11 12 13 14 15 16 17 18 19 20 21 22 23 24 25 26 27 28 29 30 31 32 33 34 35 36 37 38
472
FTUS42 TJSJ 232339
TAFJSJ
TAF
TJSJ 232339Z 2400/2424 09005KT P6SM FEW030 SCT050 BKN070
     FM240230 VRB02KT P6SM FEW040 SCT070
     FM241430 04013KT P6SM FEW035
     FM241730 04013KT P6SM VCSH SCT030 SCT050=

USA.gov is the U.S. government's official web portal to all federal, state and local government web resources and services.